Time;durP1;ratioP1;P1;durP2;ratioP2;P2;SDS_P1;SDS_P2;PMS_P1;PMS_P2;Temp;Humidity;BMP_temperature;BMP_pressure;BME280_temperature;BME280_humidity;BME280_pressure;Samples;Min_cycle;Max_cycle;Signal;HPM_P1;HPM_P2
2022/06/27 00:02:15;;;;;;;;;;;22.00;99.90;;;;;;5014136;28;19984;-71
2022/06/27 00:04:41;;;;;;;;;;;21.90;99.90;;;;;;5014016;28;20389;-71
2022/06/27 00:07:08;;;;;;;;;;;21.70;99.90;;;;;;5013960;28;19925;-71
2022/06/27 00:09:35;;;;;;;;;;;21.70;99.90;;;;;;5013903;28;19929;-71
2022/06/27 00:12:03;;;;;;;;;;;21.70;99.90;;;;;;5013974;28;20346;-71
2022/06/27 00:14:30;;;;;;;;;;;21.70;99.90;;;;;;5013784;28;20344;-71
2022/06/27 00:16:57;;;;;;;;;;;21.70;99.90;;;;;;5013909;28;19933;-71
2022/06/27 00:19:24;;;;;;;;;;;21.60;99.90;;;;;;5013682;28;19992;-71
2022/06/27 00:21:51;;;;;;;;;;;21.50;99.90;;;;;;5013806;28;19929;-71
2022/06/27 00:24:17;;;;;;;;;;;21.60;99.90;;;;;;5013648;28;20305;-71
2022/06/27 00:26:44;;;;;;;;;;;21.30;99.90;;;;;;5013584;28;19932;-71
2022/06/27 00:29:12;;;;;;;;;;;21.10;99.90;;;;;;5013513;28;19976;-71
2022/06/27 00:31:39;;;;;;;;;;;21.10;99.90;;;;;;5013361;28;19984;-71
2022/06/27 00:34:06;;;;;;;;;;;21.20;99.90;;;;;;5013215;28;19930;-71
2022/06/27 00:36:33;;;;;;;;;;;21.20;99.90;;;;;;5013662;28;19926;-71
2022/06/27 00:39:00;;;;;;;;;;;21.10;99.90;;;;;;5013312;28;19930;-71
2022/06/27 00:41:26;;;;;;;;;;;21.10;99.90;;;;;;5013058;28;19930;-71
2022/06/27 00:43:53;;;;;;;;;;;21.30;99.90;;;;;;5013196;28;19926;-71
2022/06/27 00:46:22;;;;;;;;;;;21.50;99.90;;;;;;5013207;28;19933;-71
2022/06/27 00:48:48;;;;;;;;;;;21.70;99.90;;;;;;5013137;28;20025;-71
2022/06/27 00:51:16;;;;;;;;;;;21.70;99.90;;;;;;5013037;28;19925;-71
2022/06/27 00:53:43;;;;;;;;;;;21.70;99.90;;;;;;5012770;28;19926;-71
2022/06/27 00:56:09;;;;;;;;;;;21.60;99.90;;;;;;5012925;28;19925;-71
2022/06/27 00:58:37;;;;;;;;;;;21.70;99.90;;;;;;5013042;28;19925;-71
2022/06/27 01:01:04;;;;;;;;;;;21.70;99.90;;;;;;5013284;28;19929;-71
2022/06/27 01:03:32;;;;;;;;;;;21.50;99.90;;;;;;5012830;28;19926;-71
2022/06/27 01:05:59;;;;;;;;;;;21.60;99.90;;;;;;5012791;28;19930;-71
2022/06/27 01:08:26;;;;;;;;;;;21.60;99.90;;;;;;5012611;28;19930;-72
2022/06/27 01:10:53;;;;;;;;;;;21.60;99.90;;;;;;5012157;28;19933;-71
2022/06/27 01:13:20;;;;;;;;;;;21.60;99.90;;;;;;5012721;28;19932;-71
2022/06/27 01:15:47;;;;;;;;;;;21.50;99.90;;;;;;5012870;28;19925;-71
2022/06/27 01:18:14;;;;;;;;;;;21.70;99.90;;;;;;5012693;28;19926;-71
2022/06/27 01:20:44;;;;;;;;;;;21.30;99.90;;;;;;5012508;28;19930;-71
2022/06/27 01:23:12;;;;;;;;;;;21.30;99.90;;;;;;5012690;28;19980;-71
2022/06/27 01:25:39;;;;;;;;;;;21.40;99.90;;;;;;5012633;28;20704;-71
2022/06/27 01:28:06;;;;;;;;;;;21.50;99.90;;;;;;5012503;28;19995;-71
2022/06/27 01:30:33;;;;;;;;;;;21.40;99.90;;;;;;5012492;28;19933;-71
2022/06/27 01:33:00;;;;;;;;;;;21.50;99.90;;;;;;5012346;28;19926;-72
2022/06/27 01:35:27;;;;;;;;;;;21.60;99.90;;;;;;5012259;28;19933;-71
2022/06/27 01:37:54;;;;;;;;;;;21.40;99.90;;;;;;5012482;28;20595;-71
2022/06/27 01:40:22;;;;;;;;;;;21.40;99.90;;;;;;5012350;28;19979;-71
2022/06/27 01:42:49;;;;;;;;;;;21.40;99.90;;;;;;5012284;28;19960;-71
2022/06/27 01:45:16;;;;;;;;;;;21.40;99.90;;;;;;5012591;28;19926;-71
2022/06/27 01:47:43;;;;;;;;;;;21.30;99.90;;;;;;5012390;28;19925;-71
2022/06/27 01:50:11;;;;;;;;;;;21.30;99.90;;;;;;5012408;28;19929;-71
2022/06/27 01:52:37;;;;;;;;;;;21.30;99.90;;;;;;5012381;28;20313;-71
2022/06/27 01:55:06;;;;;;;;;;;21.40;99.90;;;;;;4994159;28;22511;-71
2022/06/27 01:57:35;;;;;;;;;;;21.50;99.90;;;;;;5012301;28;19926;-71
2022/06/27 02:00:02;;;;;;;;;;;21.10;99.90;;;;;;5012247;28;19925;-71
2022/06/27 02:02:29;;;;;;;;;;;21.20;99.90;;;;;;5012124;28;20389;-71
2022/06/27 02:04:55;;;;;;;;;;;21.10;99.90;;;;;;5012264;28;20352;-71
2022/06/27 02:07:22;;;;;;;;;;;21.00;99.90;;;;;;5012164;28;19930;-71
2022/06/27 02:09:49;;;;;;;;;;;21.00;99.90;;;;;;5012673;28;20349;-71
2022/06/27 02:12:20;;;;;;;;;;;21.10;99.90;;;;;;5012600;28;19925;-71
2022/06/27 02:14:49;;;;;;;;;;;21.20;99.90;;;;;;5012223;28;20208;-71
2022/06/27 02:17:16;;;;;;;;;;;21.20;99.90;;;;;;5012107;28;20028;-71
2022/06/27 02:19:43;;;;;;;;;;;21.20;99.90;;;;;;5012229;28;19933;-71
2022/06/27 02:22:10;;;;;;;;;;;21.40;99.90;;;;;;5015640;28;19933;-71
2022/06/27 02:24:37;;;;;;;;;;;21.40;99.90;;;;;;5015896;28;19925;-71
2022/06/27 02:27:04;;;;;;;;;;;21.40;99.90;;;;;;5015814;28;19972;-71
2022/06/27 02:29:31;;;;;;;;;;;21.40;99.90;;;;;;5015820;28;19925;-71
2022/06/27 02:32:00;;;;;;;;;;;21.40;99.90;;;;;;5015790;28;19926;-71
2022/06/27 02:34:27;;;;;;;;;;;21.50;99.90;;;;;;5015690;28;19925;-71
2022/06/27 02:36:56;;;;;;;;;;;21.70;99.90;;;;;;5015751;28;19991;-71
2022/06/27 02:39:24;;;;;;;;;;;21.70;99.90;;;;;;5015631;28;19983;-71
2022/06/27 02:41:53;;;;;;;;;;;21.80;99.90;;;;;;5015481;28;19972;-71
2022/06/27 02:44:21;;;;;;;;;;;21.80;99.90;;;;;;5015771;28;19929;-71
2022/06/27 02:46:49;;;;;;;;;;;21.80;99.90;;;;;;5015552;28;19932;-71
2022/06/27 02:49:18;;;;;;;;;;;21.80;99.90;;;;;;5015504;28;19952;-71
2022/06/27 02:51:49;;;;;;;;;;;21.90;99.90;;;;;;5015401;28;20381;-71
2022/06/27 02:54:19;;;;;;;;;;;21.90;99.90;;;;;;5015254;28;19933;-71
2022/06/27 02:56:48;;;;;;;;;;;21.90;99.90;;;;;;5015229;28;19980;-71
2022/06/27 02:59:17;;;;;;;;;;;21.90;99.90;;;;;;5015584;28;20021;-72
2022/06/27 03:01:44;;;;;;;;;;;21.80;99.90;;;;;;5015456;28;19925;-71
2022/06/27 03:04:11;;;;;;;;;;;21.60;99.90;;;;;;5015134;28;20060;-71
2022/06/27 03:06:39;;;;;;;;;;;21.50;99.90;;;;;;5014998;28;19925;-71
2022/06/27 03:09:07;;;;;;;;;;;21.30;99.90;;;;;;5015047;28;20417;-71
2022/06/27 03:11:34;;;;;;;;;;;21.30;99.90;;;;;;5015157;28;19925;-71
2022/06/27 03:14:01;;;;;;;;;;;21.20;99.90;;;;;;5014963;28;19929;-71
2022/06/27 03:16:27;;;;;;;;;;;21.20;99.90;;;;;;5014948;28;19980;-71
2022/06/27 03:18:54;;;;;;;;;;;21.30;99.90;;;;;;5015040;28;19929;-71
2022/06/27 03:21:21;;;;;;;;;;;21.30;99.90;;;;;;5015141;28;19932;-71
2022/06/27 03:23:49;;;;;;;;;;;21.40;99.90;;;;;;5014727;28;19926;-71
2022/06/27 03:26:17;;;;;;;;;;;21.10;99.90;;;;;;5014695;28;19983;-71
2022/06/27 03:28:44;;;;;;;;;;;21.20;99.90;;;;;;5014819;28;19925;-71
2022/06/27 03:31:10;;;;;;;;;;;21.10;99.90;;;;;;5014735;28;19944;-72
2022/06/27 03:33:37;;;;;;;;;;;21.00;99.90;;;;;;5013860;28;19932;-72
2022/06/27 03:36:05;;;;;;;;;;;21.10;99.90;;;;;;5014566;28;19933;-72
2022/06/27 03:38:32;;;;;;;;;;;21.20;99.90;;;;;;5014651;28;19948;-71
2022/06/27 03:41:00;;;;;;;;;;;21.30;99.90;;;;;;5014823;28;19925;-72
2022/06/27 03:43:27;;;;;;;;;;;21.40;99.90;;;;;;5014374;28;19929;-72
2022/06/27 03:45:54;;;;;;;;;;;21.40;99.90;;;;;;5014405;28;19925;-71
2022/06/27 03:51:05;;;;;;;;;;;21.20;99.90;;;;;;5014523;28;19996;-72
2022/06/27 03:53:32;;;;;;;;;;;21.10;99.90;;;;;;5014297;28;20381;-72
2022/06/27 03:56:00;;;;;;;;;;;21.00;99.90;;;;;;5014375;28;19925;-71
2022/06/27 03:58:27;;;;;;;;;;;20.90;99.90;;;;;;5014510;28;19926;-71
2022/06/27 04:00:54;;;;;;;;;;;20.80;99.90;;;;;;5014458;28;19926;-71
2022/06/27 04:03:21;;;;;;;;;;;20.70;99.90;;;;;;5014125;28;20600;-71
2022/06/27 04:05:48;;;;;;;;;;;20.70;99.90;;;;;;5013983;28;19996;-71
2022/06/27 04:08:15;;;;;;;;;;;20.80;99.90;;;;;;5016541;28;20447;-70
2022/06/27 04:10:41;;;;;;;;;;;20.80;99.90;;;;;;5016690;28;19984;-69
2022/06/27 04:13:10;;;;;;;;;;;20.40;99.90;;;;;;5015913;28;19925;-69
2022/06/27 04:15:36;;;;;;;;;;;20.10;99.90;;;;;;5016011;28;19926;-68
2022/06/27 04:18:03;;;;;;;;;;;19.70;99.90;;;;;;5018491;28;19929;-68
2022/06/27 04:20:30;;;;;;;;;;;19.40;99.90;;;;;;5024485;28;19929;-68
2022/06/27 04:22:57;;;;;;;;;;;19.00;99.90;;;;;;5027643;28;19948;-68
2022/06/27 04:25:24;;;;;;;;;;;18.90;99.90;;;;;;5025892;28;20006;-68
2022/06/27 04:27:51;;;;;;;;;;;18.70;99.90;;;;;;5026467;28;20412;-68
2022/06/27 04:30:19;;;;;;;;;;;18.60;99.90;;;;;;5015963;28;19932;-68
2022/06/27 04:32:48;;;;;;;;;;;18.50;99.90;;;;;;5013381;28;19979;-68
2022/06/27 04:35:15;;;;;;;;;;;18.60;99.90;;;;;;5013929;28;20380;-68
2022/06/27 04:37:43;;;;;;;;;;;18.60;99.90;;;;;;5013432;28;19933;-68
2022/06/27 04:40:11;;;;;;;;;;;18.50;99.90;;;;;;5013603;28;19930;-68
2022/06/27 04:42:38;;;;;;;;;;;18.60;99.90;;;;;;5013142;28;19925;-68
2022/06/27 04:45:09;;;;;;;;;;;18.50;99.90;;;;;;5012401;28;19947;-68
2022/06/27 04:47:39;;;;;;;;;;;18.70;99.90;;;;;;5013179;28;19925;-68
2022/06/27 04:50:08;;;;;;;;;;;18.70;99.90;;;;;;5013512;28;20017;-68
2022/06/27 04:52:35;;;;;;;;;;;18.60;99.90;;;;;;5013204;28;19925;-69
2022/06/27 04:55:02;;;;;;;;;;;18.60;99.90;;;;;;5013199;28;19926;-68
2022/06/27 04:57:28;;;;;;;;;;;18.50;99.90;;;;;;5013301;28;19975;-69
2022/06/27 04:59:55;;;;;;;;;;;18.60;99.90;;;;;;5012925;28;19930;-69
2022/06/27 05:02:23;;;;;;;;;;;18.60;99.90;;;;;;5012875;28;19925;-68
2022/06/27 05:04:51;;;;;;;;;;;18.60;99.90;;;;;;5012983;28;20289;-69
2022/06/27 05:07:17;;;;;;;;;;;18.70;99.90;;;;;;5013083;28;20451;-69
2022/06/27 05:09:45;;;;;;;;;;;18.70;99.90;;;;;;5012934;28;19925;-69
2022/06/27 05:12:12;;;;;;;;;;;18.80;99.90;;;;;;5012777;28;19972;-69
2022/06/27 05:14:39;;;;;;;;;;;18.90;99.90;;;;;;5012765;28;19925;-68
2022/06/27 05:17:06;;;;;;;;;;;19.00;99.90;;;;;;5013105;28;19933;-69
2022/06/27 05:19:33;;;;;;;;;;;18.90;99.90;;;;;;5013097;28;19929;-69
2022/06/27 05:22:01;;;;;;;;;;;19.00;99.90;;;;;;5012732;28;20390;-69
2022/06/27 05:24:28;;;;;;;;;;;19.00;99.90;;;;;;5013007;28;19925;-69
2022/06/27 05:26:55;;;;;;;;;;;19.00;99.90;;;;;;5012565;28;19926;-69
2022/06/27 05:29:22;;;;;;;;;;;19.10;99.90;;;;;;5013002;28;19980;-69
2022/06/27 05:31:49;;;;;;;;;;;19.30;99.90;;;;;;5012816;28;19926;-69
2022/06/27 05:34:15;;;;;;;;;;;19.50;99.90;;;;;;5012559;28;20401;-69
2022/06/27 05:36:42;;;;;;;;;;;19.50;99.90;;;;;;5012488;28;19979;-69
2022/06/27 05:39:11;;;;;;;;;;;19.50;99.90;;;;;;5013016;28;19965;-69
2022/06/27 05:41:37;;;;;;;;;;;19.60;99.90;;;;;;5012496;28;19979;-69
2022/06/27 05:44:04;;;;;;;;;;;19.50;99.90;;;;;;5012536;28;19980;-69
2022/06/27 05:46:31;;;;;;;;;;;19.50;99.90;;;;;;5012312;28;19968;-69
2022/06/27 05:49:00;;;;;;;;;;;19.70;99.90;;;;;;5012368;28;19959;-69
2022/06/27 05:51:29;;;;;;;;;;;19.60;99.90;;;;;;5012871;28;19926;-69
2022/06/27 05:53:56;;;;;;;;;;;19.80;99.90;;;;;;5119535;22;19925;-67
2022/06/27 05:56:25;;;;;;;;;;;19.80;99.90;;;;;;5036636;28;20524;-67
2022/06/27 05:58:52;;;;;;;;;;;19.80;99.90;;;;;;5038946;28;19932;-70
2022/06/27 06:01:19;;;;;;;;;;;19.60;99.90;;;;;;5038483;28;19929;-69
2022/06/27 06:03:46;;;;;;;;;;;19.60;99.90;;;;;;5038284;28;19929;-70
2022/06/27 06:06:13;;;;;;;;;;;19.60;99.90;;;;;;5038596;28;19932;-67
2022/06/27 06:08:41;;;;;;;;;;;19.60;99.90;;;;;;5038788;28;20022;-67
2022/06/27 06:11:07;;;;;;;;;;;19.60;99.90;;;;;;5038885;28;19925;-67
2022/06/27 06:13:36;;;;;;;;;;;19.70;99.90;;;;;;5038239;28;19932;-68
2022/06/27 06:16:06;;;;;;;;;;;19.70;99.90;;;;;;5038011;28;20019;-68
2022/06/27 06:18:33;;;;;;;;;;;19.80;99.90;;;;;;5038417;28;20356;-67
2022/06/27 06:21:00;;;;;;;;;;;19.80;99.90;;;;;;5038471;28;19925;-70
2022/06/27 06:23:27;;;;;;;;;;;19.70;99.90;;;;;;5038412;28;19925;-69
2022/06/27 06:25:54;;;;;;;;;;;19.70;99.90;;;;;;5038263;28;20412;-69
2022/06/27 06:28:21;;;;;;;;;;;19.70;99.90;;;;;;5038266;28;19925;-69
2022/06/27 06:30:49;;;;;;;;;;;19.80;99.90;;;;;;5038436;28;19933;-68
2022/06/27 06:33:16;;;;;;;;;;;19.90;99.90;;;;;;5038026;28;19929;-68
2022/06/27 06:35:44;;;;;;;;;;;19.80;99.90;;;;;;5038249;28;20027;-68
2022/06/27 06:38:11;;;;;;;;;;;20.10;99.90;;;;;;5038149;28;20373;-68
2022/06/27 06:40:38;;;;;;;;;;;19.90;99.90;;;;;;5038198;28;19932;-69
2022/06/27 06:43:06;;;;;;;;;;;19.90;99.90;;;;;;5037253;28;20416;-70
2022/06/27 06:45:33;;;;;;;;;;;20.00;99.90;;;;;;5037809;28;19925;-71
2022/06/27 06:48:02;;;;;;;;;;;20.10;99.90;;;;;;5038409;28;19925;-71
2022/06/27 06:50:28;;;;;;;;;;;20.50;99.90;;;;;;5038442;28;19929;-69
2022/06/27 06:52:55;;;;;;;;;;;20.70;99.90;;;;;;5037785;28;20290;-69
2022/06/27 06:55:24;;;;;;;;;;;21.10;99.90;;;;;;5037781;28;19979;-69
2022/06/27 06:57:51;;;;;;;;;;;21.60;99.90;;;;;;5038190;28;19925;-71
2022/06/27 07:00:19;;;;;;;;;;;21.80;99.90;;;;;;5038079;28;20001;-71
2022/06/27 07:02:46;;;;;;;;;;;22.30;99.90;;;;;;5037882;28;19975;-71
2022/06/27 07:05:14;;;;;;;;;;;22.80;99.90;;;;;;5037889;28;19932;-71
2022/06/27 07:07:42;;;;;;;;;;;22.70;99.90;;;;;;5035074;28;20400;-72
2022/06/27 07:10:10;;;;;;;;;;;22.60;99.90;;;;;;5034752;28;20079;-72
2022/06/27 07:12:38;;;;;;;;;;;22.70;99.90;;;;;;5034494;28;19979;-71
2022/06/27 07:15:09;;;;;;;;;;;22.90;99.90;;;;;;5034827;28;19924;-71
2022/06/27 07:17:43;;;;;;;;;;;22.80;99.90;;;;;;5035301;28;19979;-72
2022/06/27 07:20:10;;;;;;;;;;;23.00;99.90;;;;;;5034854;28;19925;-71
2022/06/27 07:22:40;;;;;;;;;;;23.20;99.90;;;;;;5034513;28;20442;-71
2022/06/27 07:25:07;;;;;;;;;;;23.20;99.90;;;;;;5034187;28;19925;-71
2022/06/27 07:27:36;;;;;;;;;;;23.30;99.90;;;;;;5034431;28;19925;-72
2022/06/27 07:30:03;;;;;;;;;;;23.00;99.90;;;;;;5034396;28;19933;-71
2022/06/27 07:32:31;;;;;;;;;;;22.70;99.90;;;;;;5034239;28;19925;-71
2022/06/27 07:34:58;;;;;;;;;;;22.90;99.90;;;;;;5033804;28;19971;-71
2022/06/27 07:37:26;;;;;;;;;;;23.20;99.90;;;;;;5034480;28;19925;-71
2022/06/27 07:39:54;;;;;;;;;;;22.90;99.90;;;;;;5034202;28;20365;-71
2022/06/27 07:42:21;;;;;;;;;;;23.20;99.90;;;;;;5034074;28;19925;-70
2022/06/27 07:44:50;;;;;;;;;;;22.70;99.90;;;;;;5033917;28;19931;-71
2022/06/27 07:47:16;;;;;;;;;;;22.80;99.90;;;;;;5033839;28;20012;-71
2022/06/27 07:49:43;;;;;;;;;;;22.70;99.90;;;;;;5034062;28;19932;-71
2022/06/27 07:52:10;;;;;;;;;;;23.10;99.90;;;;;;5034073;28;19925;-71
2022/06/27 07:54:37;;;;;;;;;;;23.30;99.90;;;;;;5033853;28;19928;-71
2022/06/27 07:57:05;;;;;;;;;;;23.10;99.90;;;;;;5033639;28;19925;-71
2022/06/27 07:59:32;;;;;;;;;;;22.80;99.90;;;;;;5034255;28;20275;-71
2022/06/27 08:01:59;;;;;;;;;;;22.90;99.90;;;;;;5033817;28;19929;-73
2022/06/27 08:04:26;;;;;;;;;;;22.80;99.90;;;;;;5033763;28;20381;-73
2022/06/27 08:06:53;;;;;;;;;;;22.60;99.90;;;;;;5033566;28;19924;-71
2022/06/27 08:09:22;;;;;;;;;;;22.80;99.90;;;;;;5033656;28;20350;-73
2022/06/27 08:11:49;;;;;;;;;;;22.90;99.90;;;;;;5033425;28;20008;-71
2022/06/27 08:14:17;;;;;;;;;;;23.20;99.90;;;;;;5033645;28;19932;-71
2022/06/27 08:16:48;;;;;;;;;;;23.30;99.90;;;;;;5033377;28;19931;-71
2022/06/27 08:19:14;;;;;;;;;;;22.90;99.90;;;;;;5033588;28;20293;-73
2022/06/27 08:21:43;;;;;;;;;;;22.30;99.90;;;;;;5033667;28;19928;-70
2022/06/27 08:24:12;;;;;;;;;;;22.70;99.90;;;;;;5033493;28;19925;-70
2022/06/27 08:26:38;;;;;;;;;;;23.10;99.90;;;;;;5033223;28;20428;-70
2022/06/27 08:29:06;;;;;;;;;;;23.50;99.90;;;;;;5033168;28;20356;-71
2022/06/27 08:31:35;;;;;;;;;;;22.90;99.90;;;;;;5033296;28;19925;-71
2022/06/27 08:34:02;;;;;;;;;;;23.20;99.90;;;;;;5032997;28;19925;-71
2022/06/27 08:36:30;;;;;;;;;;;24.10;99.90;;;;;;5032862;28;19995;-71
2022/06/27 08:38:57;;;;;;;;;;;23.90;99.90;;;;;;5033268;28;19925;-69
2022/06/27 08:41:25;;;;;;;;;;;22.80;99.90;;;;;;5033041;28;19926;-71
2022/06/27 08:43:54;;;;;;;;;;;22.60;99.90;;;;;;5032929;28;20369;-69
2022/06/27 08:46:22;;;;;;;;;;;24.00;99.90;;;;;;5032722;28;19975;-69
2022/06/27 08:48:51;;;;;;;;;;;24.30;99.90;;;;;;5033020;28;19936;-69
2022/06/27 08:51:18;;;;;;;;;;;25.50;99.90;;;;;;5032876;28;20019;-69
2022/06/27 08:53:45;;;;;;;;;;;24.70;99.90;;;;;;5032829;28;19926;-70
2022/06/27 08:56:13;;;;;;;;;;;23.70;99.90;;;;;;5032278;28;19979;-70
2022/06/27 08:58:46;;;;;;;;;;;24.40;99.90;;;;;;5033056;28;19933;-71
2022/06/27 09:01:14;;;;;;;;;;;25.00;99.90;;;;;;5032425;28;20305;-71
2022/06/27 09:03:44;;;;;;;;;;;25.20;99.90;;;;;;5032374;28;20459;-69
2022/06/27 09:06:14;;;;;;;;;;;25.10;99.90;;;;;;5032512;28;19925;-69
2022/06/27 09:08:54;;;;;;;;;;;25.30;99.90;;;;;;5033026;28;20416;-69
2022/06/27 09:11:27;;;;;;;;;;;25.80;99.90;;;;;;5032677;28;20004;-69
2022/06/27 09:13:53;;;;;;;;;;;26.90;99.90;;;;;;5032262;28;19925;-71
2022/06/27 09:16:20;;;;;;;;;;;25.50;99.90;;;;;;5032217;28;20385;-71
2022/06/27 09:18:47;;;;;;;;;;;26.40;99.90;;;;;;5032407;28;19925;-71
2022/06/27 09:21:15;;;;;;;;;;;27.60;99.90;;;;;;5032270;28;19925;-71
2022/06/27 09:23:43;;;;;;;;;;;26.60;99.90;;;;;;5032535;28;19925;-71
2022/06/27 09:26:12;;;;;;;;;;;26.10;99.90;;;;;;5031702;28;19929;-71
2022/06/27 09:28:41;;;;;;;;;;;25.80;99.90;;;;;;5032101;28;19925;-71
2022/06/27 09:31:10;;;;;;;;;;;25.20;99.90;;;;;;5031890;28;20012;-71
2022/06/27 09:33:38;;;;;;;;;;;25.10;99.90;;;;;;5031911;28;20009;-71
2022/06/27 09:36:16;;;;;;;;;;;25.20;99.90;;;;;;5031844;28;19925;-71
2022/06/27 09:38:44;;;;;;;;;;;25.10;99.90;;;;;;5032228;28;20292;-70
2022/06/27 09:41:12;;;;;;;;;;;26.20;99.90;;;;;;5032105;28;19925;-70
2022/06/27 09:43:41;;;;;;;;;;;27.30;99.90;;;;;;5032042;28;20015;-69
2022/06/27 09:46:09;;;;;;;;;;;27.90;99.90;;;;;;5031717;28;19925;-70
2022/06/27 09:48:37;;;;;;;;;;;28.00;99.90;;;;;;5032094;28;19932;-70
2022/06/27 09:51:04;;;;;;;;;;;29.20;99.90;;;;;;5032266;28;19929;-70
2022/06/27 09:53:33;;;;;;;;;;;29.20;99.90;;;;;;5031548;28;19980;-71
2022/06/27 09:56:01;;;;;;;;;;;29.90;99.90;;;;;;5031658;28;19952;-70
2022/06/27 09:58:29;;;;;;;;;;;31.10;98.80;;;;;;5032038;28;19932;-70
2022/06/27 10:00:55;;;;;;;;;;;29.60;99.30;;;;;;5031887;28;20403;-70
2022/06/27 10:03:23;;;;;;;;;;;31.50;97.20;;;;;;5031951;28;19925;-71
2022/06/27 10:05:50;;;;;;;;;;;31.20;96.50;;;;;;5031713;28;19929;-71
2022/06/27 10:08:18;;;;;;;;;;;29.10;98.80;;;;;;5031799;28;19936;-70
2022/06/27 10:11:04;;;;;;;;;;;29.00;99.30;;;;;;5032241;28;20008;-70
2022/06/27 10:13:33;;;;;;;;;;;29.80;98.20;;;;;;5031825;28;19987;-72
2022/06/27 10:16:05;;;;;;;;;;;28.80;98.90;;;;;;5031594;28;20351;-71
2022/06/27 10:18:47;;;;;;;;;;;27.60;99.60;;;;;;5031954;28;19932;-72
2022/06/27 10:21:27;;;;;;;;;;;26.80;99.90;;;;;;5031393;28;19929;-70
2022/06/27 10:24:12;;;;;;;;;;;28.20;99.90;;;;;;5031632;28;20373;-70
2022/06/27 10:26:39;;;;;;;;;;;29.30;98.80;;;;;;5031511;28;19933;-70
2022/06/27 10:29:21;;;;;;;;;;;29.50;98.40;;;;;;5031790;28;20004;-70
2022/06/27 10:31:49;;;;;;;;;;;27.80;99.90;;;;;;5030826;28;19925;-70
2022/06/27 10:34:16;;;;;;;;;;;28.70;99.60;;;;;;5031454;28;20451;-70
2022/06/27 10:36:43;;;;;;;;;;;29.20;98.80;;;;;;5031491;28;19971;-70
2022/06/27 10:39:19;;;;;;;;;;;29.10;98.90;;;;;;5031535;28;19944;-70
2022/06/27 10:41:46;;;;;;;;;;;29.30;99.00;;;;;;5032567;28;19925;-69
2022/06/27 10:44:32;;;;;;;;;;;29.00;98.90;;;;;;5054970;28;19929;-72
2022/06/27 10:47:00;;;;;;;;;;;28.70;99.10;;;;;;5055124;28;19925;-71
2022/06/27 10:49:28;;;;;;;;;;;28.20;99.90;;;;;;5055096;28;19978;-71
2022/06/27 10:52:13;;;;;;;;;;;27.10;99.90;;;;;;5055218;28;19924;-71
2022/06/27 10:54:41;;;;;;;;;;;27.90;99.90;;;;;;5055060;28;19928;-72
2022/06/27 10:57:08;;;;;;;;;;;28.50;99.90;;;;;;5055023;28;19928;-71
2022/06/27 11:00:03;;;;;;;;;;;27.90;99.90;;;;;;5055045;28;19925;-71
2022/06/27 11:02:33;;;;;;;;;;;28.80;99.20;;;;;;5055107;28;19932;-71
2022/06/27 11:05:00;;;;;;;;;;;29.50;98.10;;;;;;5054896;28;19932;-71
2022/06/27 11:07:27;;;;;;;;;;;30.00;97.40;;;;;;5054854;28;20408;-71
2022/06/27 11:09:54;;;;;;;;;;;30.70;96.60;;;;;;5053992;28;19924;-71
2022/06/27 11:12:23;;;;;;;;;;;31.00;96.20;;;;;;5052838;28;19935;-71
2022/06/27 11:14:50;;;;;;;;;;;29.50;97.40;;;;;;5054725;28;19955;-70
2022/06/27 11:17:32;;;;;;;;;;;28.80;98.20;;;;;;5054605;28;20316;-69
2022/06/27 11:20:09;;;;;;;;;;;29.80;97.70;;;;;;5054930;28;19936;-70
2022/06/27 11:22:37;;;;;;;;;;;30.70;96.00;;;;;;5054645;28;19925;-70
2022/06/27 11:25:04;;;;;;;;;;;30.80;96.00;;;;;;5054161;28;19925;-70
2022/06/27 11:27:43;;;;;;;;;;;30.60;96.10;;;;;;5053838;28;19929;-70
2022/06/27 11:32:56;;;;;;;;;;;30.00;96.70;;;;;;5052065;28;20013;-70
2022/06/27 11:35:24;;;;;;;;;;;30.40;95.70;;;;;;5053902;28;19928;-70
2022/06/27 11:37:51;;;;;;;;;;;30.40;95.80;;;;;;5054097;28;19990;-70
2022/06/27 11:40:20;;;;;;;;;;;29.70;96.90;;;;;;5054483;28;20339;-70
2022/06/27 11:42:47;;;;;;;;;;;29.00;97.40;;;;;;5054337;28;19924;-72
2022/06/27 11:45:15;;;;;;;;;;;28.40;97.90;;;;;;5054213;28;20292;-71
2022/06/27 11:47:42;;;;;;;;;;;28.70;97.60;;;;;;5054015;28;19932;-71
2022/06/27 11:50:12;;;;;;;;;;;28.30;97.80;;;;;;5054144;28;19978;-72
2022/06/27 11:52:40;;;;;;;;;;;28.10;98.30;;;;;;5053666;28;19925;-71
2022/06/27 11:55:08;;;;;;;;;;;28.00;97.90;;;;;;5053197;28;19924;-71
2022/06/27 11:57:35;;;;;;;;;;;28.30;98.10;;;;;;5053884;28;20399;-71
2022/06/27 12:00:04;;;;;;;;;;;28.10;98.00;;;;;;5053973;28;19932;-70
2022/06/27 12:02:32;;;;;;;;;;;27.30;98.50;;;;;;5053823;28;19992;-70
2022/06/27 12:05:08;;;;;;;;;;;26.80;99.90;;;;;;5053538;28;20415;-71
2022/06/27 12:11:16;;;;;;;;;;;27.30;99.80;;;;;;5151141;27;20378;-71
2022/06/27 12:13:33;;;;;;;;;;;27.60;99.20;;;;;;5151531;27;19923;-71
2022/06/27 12:16:01;;;;;;;;;;;28.60;98.30;;;;;;5151083;27;19931;-71
2022/06/27 12:18:32;;;;;;;;;;;28.90;98.00;;;;;;5151206;27;20014;-72
2022/06/27 12:20:59;;;;;;;;;;;28.50;97.90;;;;;;5150999;27;19931;-71
2022/06/27 12:23:26;;;;;;;;;;;28.20;98.30;;;;;;5150960;27;19923;-71
2022/06/27 12:25:54;;;;;;;;;;;28.60;98.00;;;;;;5150582;27;19984;-72
2022/06/27 12:28:21;;;;;;;;;;;28.70;98.00;;;;;;5150802;27;19923;-71
2022/06/27 12:30:48;;;;;;;;;;;29.80;97.30;;;;;;5150872;27;19927;-72
2022/06/27 12:33:15;;;;;;;;;;;31.20;95.80;;;;;;5150878;27;20298;-71
2022/06/27 12:35:42;;;;;;;;;;;31.40;95.30;;;;;;5150227;27;20399;-71
2022/06/27 12:38:09;;;;;;;;;;;30.90;95.40;;;;;;5150688;27;20043;-71
2022/06/27 12:40:37;;;;;;;;;;;31.30;95.10;;;;;;5150540;27;20319;-71
2022/06/27 12:43:05;;;;;;;;;;;31.80;94.50;;;;;;5150556;27;19927;-71
2022/06/27 12:45:32;;;;;;;;;;;31.50;94.50;;;;;;5150348;27;19949;-72
2022/06/27 12:47:59;;;;;;;;;;;30.80;95.10;;;;;;5150883;27;19968;-72
2022/06/27 12:50:25;;;;;;;;;;;30.90;95.40;;;;;;5150616;27;19931;-72
2022/06/27 12:52:52;;;;;;;;;;;31.50;95.00;;;;;;5150762;27;19968;-72
2022/06/27 12:55:19;;;;;;;;;;;31.20;95.20;;;;;;5150256;27;19927;-71
2022/06/27 12:57:46;;;;;;;;;;;32.10;94.20;;;;;;5150479;27;19923;-74
2022/06/27 13:00:16;;;;;;;;;;;32.00;94.40;;;;;;5150520;27;19923;-73
2022/06/27 13:02:42;;;;;;;;;;;31.70;94.00;;;;;;5150054;27;19927;-73
2022/06/27 13:05:09;;;;;;;;;;;30.90;95.40;;;;;;5149903;27;19934;-73
2022/06/27 13:07:36;;;;;;;;;;;30.20;95.90;;;;;;5149908;27;19930;-73
2022/06/27 13:10:03;;;;;;;;;;;30.40;96.30;;;;;;5149837;27;19931;-73
2022/06/27 13:12:30;;;;;;;;;;;29.40;96.70;;;;;;5149889;27;19923;-73
2022/06/27 13:14:57;;;;;;;;;;;29.20;96.90;;;;;;5149386;27;19923;-69
2022/06/27 13:17:25;;;;;;;;;;;29.20;96.70;;;;;;5149816;27;20284;-73
2022/06/27 13:19:52;;;;;;;;;;;28.70;97.30;;;;;;5147029;27;20386;-72
2022/06/27 13:22:19;;;;;;;;;;;28.20;97.80;;;;;;5135855;27;19924;-72
2022/06/27 13:24:46;;;;;;;;;;;27.80;98.70;;;;;;5135583;27;19931;-71
2022/06/27 13:27:13;;;;;;;;;;;27.30;98.90;;;;;;5135737;27;19924;-72
2022/06/27 13:29:39;;;;;;;;;;;27.60;98.70;;;;;;5135479;27;19927;-72
2022/06/27 13:32:06;;;;;;;;;;;28.10;98.10;;;;;;5135470;27;19927;-72
2022/06/27 13:34:35;;;;;;;;;;;26.70;99.10;;;;;;5135927;27;20340;-73
2022/06/27 13:37:01;;;;;;;;;;;27.20;99.40;;;;;;5135406;27;19923;-73
2022/06/27 13:39:28;;;;;;;;;;;27.00;99.00;;;;;;5135957;27;19924;-72
2022/06/27 13:41:55;;;;;;;;;;;28.30;98.20;;;;;;5135301;27;19923;-75
2022/06/27 13:44:22;;;;;;;;;;;29.20;96.60;;;;;;5135391;27;19973;-73
2022/06/27 13:46:49;;;;;;;;;;;29.20;96.10;;;;;;5135354;27;19947;-73
2022/06/27 13:49:16;;;;;;;;;;;29.10;96.40;;;;;;5135326;27;19924;-73
2022/06/27 13:51:44;;;;;;;;;;;28.10;97.20;;;;;;5135153;27;19928;-73
2022/06/27 13:54:11;;;;;;;;;;;29.00;96.80;;;;;;5135187;27;20272;-73
2022/06/27 13:56:37;;;;;;;;;;;29.20;96.00;;;;;;5134885;27;19923;-72
2022/06/27 13:59:04;;;;;;;;;;;29.10;96.00;;;;;;5135155;27;19923;-72
2022/06/27 14:01:31;;;;;;;;;;;28.00;97.30;;;;;;5135139;27;19923;-72
2022/06/27 14:03:58;;;;;;;;;;;27.70;97.90;;;;;;5134839;27;19930;-72
2022/06/27 14:09:10;;;;;;;;;;;27.10;99.00;;;;;;5134786;27;20314;-72
2022/06/27 14:11:37;;;;;;;;;;;27.90;97.70;;;;;;5134799;27;19924;-72
2022/06/27 14:14:04;;;;;;;;;;;27.60;97.90;;;;;;5134931;27;19949;-71
2022/06/27 14:16:31;;;;;;;;;;;26.90;98.70;;;;;;5134497;27;20499;-72
2022/06/27 14:18:58;;;;;;;;;;;27.70;97.90;;;;;;5134676;27;20315;-73
2022/06/27 14:21:24;;;;;;;;;;;28.50;96.80;;;;;;5134786;27;20050;-73
2022/06/27 14:23:52;;;;;;;;;;;28.90;96.50;;;;;;5134450;27;19996;-74
2022/06/27 14:26:20;;;;;;;;;;;28.30;96.90;;;;;;5134434;27;19923;-74
2022/06/27 14:28:47;;;;;;;;;;;27.20;98.10;;;;;;5134466;27;19944;-74
2022/06/27 14:31:14;;;;;;;;;;;27.90;98.00;;;;;;5134573;27;19923;-73
2022/06/27 14:33:41;;;;;;;;;;;28.10;97.70;;;;;;5133724;27;19928;-73